Terminal Aerodrome Forecast
Issued by NWS Quad Cities IA IL

Home | Current Version | Previous Version | Text Only | Print | Product List | Glossary On
Versions: 1 2 3 4 5 6 7 8 9 10 11 12 13 14 15 16 17 18 19 20 21 22 23 24 25 26 27 28 29 30 31 32
199
FTUS43 KDVN 052325
TAFMLI
TAF
KMLI 052325Z 0600/0624 13009KT 3SM BR OVC006
     FM060300 14009KT 1SM BR OVC004
     FM060600 13005KT 1/2SM FG OVC002
     FM061200 23005KT 1SM BR OVC004
     FM061700 28014G24KT 6SM BR BKN050=

USA.gov is the U.S. government's official web portal to all federal, state and local government web resources and services.